Sand Point, Michigan
Current Conditions -  °F | °C
As of 5:16 AM on Sunday 23 Nov 2014 (Local Time) from KBAX Reporting Station
Haze Haze  
Wind Chill:   Ceiling: 1800
Heat Index:   Visibility: 5mi
Dew Point:   Wind: 7mph
Humidity: 100%   Direction: 180°S
Pressure: 29.88"   Gusts: NA
Location:  43.8338°N, 83.2671°W
Report Text: KBAX 231016Z AUTO 18006KT 5SM BR BKN018 OVC031 06/06 A2988 RMK AO2 T00580058
Loading
Personal Weather Stations






























Interactive Weather Map New forecast layout! Learn more

10-Day Weather Forecast

Advertisements
Track Severe Weather on mobile